Time;durP1;ratioP1;P1;durP2;ratioP2;P2;SDS_P1;SDS_P2;PMS_P1;PMS_P2;Temp;Humidity;BMP_temperature;BMP_pressure;BME280_temperature;BME280_humidity;BME280_pressure;Samples;Min_cycle;Max_cycle;Signal;HPM_P1;HPM_P2
2023/04/19 00:02:13;;;;;;;32.30;22.43;;;9.10;99.90;;;;;;4878475;29;20617;-57
2023/04/19 00:04:43;;;;;;;37.13;23.30;;;9.10;99.90;;;;;;4877473;29;23053;-57
2023/04/19 00:07:12;;;;;;;34.77;22.93;;;9.00;99.90;;;;;;4879242;29;20255;-57
2023/04/19 00:09:42;;;;;;;34.73;22.33;;;9.00;99.90;;;;;;4860405;29;20227;-57
2023/04/19 00:12:10;;;;;;;34.37;23.43;;;9.00;99.90;;;;;;4877915;29;20720;-57
2023/04/19 00:14:38;;;;;;;35.00;22.30;;;9.00;99.90;;;;;;4877524;29;20235;-57
2023/04/19 00:17:07;;;;;;;35.53;22.57;;;9.00;99.90;;;;;;4876542;29;20243;-57
2023/04/19 00:19:35;;;;;;;35.87;24.37;;;9.00;99.90;;;;;;4877749;29;20221;-57
2023/04/19 00:22:03;;;;;;;36.40;23.40;;;8.90;99.90;;;;;;4874069;29;20238;-57
2023/04/19 00:24:35;;;;;;;36.07;23.87;;;8.90;99.90;;;;;;4877734;29;20250;-57
2023/04/19 00:27:04;;;;;;;38.43;24.03;;;8.80;99.90;;;;;;4877814;29;20574;-57
2023/04/19 00:29:33;;;;;;;36.83;23.67;;;8.90;99.90;;;;;;4873970;29;20251;-57
2023/04/19 00:32:01;;;;;;;38.53;23.53;;;8.90;99.90;;;;;;4872946;29;20235;-58
2023/04/19 00:34:29;;;;;;;41.50;25.20;;;8.80;99.90;;;;;;4873822;29;20686;-57
2023/04/19 00:36:57;;;;;;;36.53;23.63;;;8.80;99.90;;;;;;4877682;29;20203;-57
2023/04/19 00:39:26;;;;;;;38.83;25.27;;;8.70;99.90;;;;;;4875525;29;20222;-57
2023/04/19 00:41:56;;;;;;;38.00;23.53;;;8.70;99.90;;;;;;4876199;29;20267;-57
2023/04/19 00:44:25;;;;;;;42.53;24.90;;;8.60;99.90;;;;;;4878652;29;20222;-57
2023/04/19 00:46:55;;;;;;;39.37;24.93;;;8.60;99.90;;;;;;4873598;29;20460;-57
2023/04/19 00:49:25;;;;;;;38.30;23.83;;;8.50;99.90;;;;;;4875421;29;20210;-57
2023/04/19 00:51:56;;;;;;;38.63;24.30;;;8.50;99.90;;;;;;4876583;29;20194;-57
2023/04/19 00:54:25;;;;;;;40.27;25.73;;;8.50;99.90;;;;;;4874306;29;20274;-57
2023/04/19 00:56:53;;;;;;;42.03;24.70;;;8.50;99.90;;;;;;4875506;29;20222;-57
2023/04/19 00:59:22;;;;;;;37.53;24.23;;;8.50;99.90;;;;;;4872715;29;20633;-57
2023/04/19 01:01:52;;;;;;;41.20;24.87;;;8.40;99.90;;;;;;4874933;29;20290;-57
2023/04/19 01:04:21;;;;;;;39.00;24.50;;;8.40;99.90;;;;;;4860980;29;20226;-57
2023/04/19 01:06:51;;;;;;;39.57;24.83;;;8.40;99.90;;;;;;4875433;29;20230;-57
2023/04/19 01:09:19;;;;;;;38.53;25.60;;;8.40;99.90;;;;;;4876744;29;20315;-58
2023/04/19 01:11:47;;;;;;;42.23;26.07;;;8.30;99.90;;;;;;4876365;29;20230;-58
2023/04/19 01:14:15;;;;;;;41.23;24.33;;;8.30;99.90;;;;;;4877400;29;20320;-57
2023/04/19 01:16:44;;;;;;;41.17;26.33;;;8.20;99.90;;;;;;4875264;29;20321;-57
2023/04/19 01:19:14;;;;;;;43.03;25.97;;;8.20;99.90;;;;;;4874339;29;20222;-57
2023/04/19 01:21:42;;;;;;;40.40;25.80;;;8.20;99.90;;;;;;4872724;29;20626;-57
2023/04/19 01:24:12;;;;;;;40.10;26.10;;;8.20;99.90;;;;;;4877334;29;20215;-58
2023/04/19 01:26:40;;;;;;;43.00;25.93;;;8.20;99.90;;;;;;4860586;29;20744;-57
2023/04/19 01:29:09;;;;;;;41.83;26.40;;;8.20;99.90;;;;;;4873551;29;20218;-57
2023/04/19 01:31:37;;;;;;;40.07;25.33;;;8.10;99.90;;;;;;4874116;29;20698;-57
2023/04/19 01:34:05;;;;;;;44.73;26.33;;;8.10;99.90;;;;;;4876819;29;20267;-57
2023/04/19 01:36:33;;;;;;;42.60;26.20;;;8.00;99.90;;;;;;4873999;29;20254;-58
2023/04/19 01:39:02;;;;;;;40.93;26.00;;;8.10;99.90;;;;;;4874807;29;20230;-57
2023/04/19 01:41:31;;;;;;;39.50;25.13;;;8.00;99.90;;;;;;4876289;29;20226;-57
2023/04/19 01:44:00;;;;;;;40.47;25.30;;;8.00;99.90;;;;;;4874612;29;20274;-57
2023/04/19 01:46:28;;;;;;;41.83;26.90;;;8.00;99.90;;;;;;4875814;29;20289;-57
2023/04/19 01:48:56;;;;;;;40.77;25.47;;;8.00;99.90;;;;;;4876203;29;20209;-57
2023/04/19 01:51:25;;;;;;;40.83;26.40;;;8.00;99.90;;;;;;4877572;29;20227;-56
2023/04/19 01:53:53;;;;;;;42.30;26.30;;;7.90;99.90;;;;;;4877471;29;20305;-57
2023/04/19 01:56:22;;;;;;;43.37;27.17;;;7.90;99.90;;;;;;4877795;29;20241;-57
2023/04/19 01:58:51;;;;;;;44.57;26.77;;;7.90;99.90;;;;;;4872270;29;20563;-57
2023/04/19 02:01:19;;;;;;;41.70;26.97;;;7.90;99.90;;;;;;4875441;29;20317;-57
2023/04/19 02:03:48;;;;;;;46.60;27.03;;;7.90;99.90;;;;;;4875674;29;20219;-57
2023/04/19 02:06:19;;;;;;;46.47;28.27;;;7.90;99.90;;;;;;4869052;29;20234;-57
2023/04/19 02:08:47;;;;;;;43.63;26.13;;;7.90;99.90;;;;;;4876162;29;20227;-57
2023/04/19 02:11:16;;;;;;;39.47;25.47;;;7.80;99.90;;;;;;4876739;29;20238;-57
2023/04/19 02:13:44;;;;;;;43.13;26.10;;;7.80;99.90;;;;;;4870982;29;20689;-57
2023/04/19 02:16:13;;;;;;;44.27;26.63;;;7.80;99.90;;;;;;4876856;29;20223;-57
2023/04/19 02:18:42;;;;;;;44.13;26.20;;;7.80;99.90;;;;;;4874517;29;20270;-58
2023/04/19 02:21:11;;;;;;;47.10;27.27;;;7.80;99.90;;;;;;4874807;29;20257;-57
2023/04/19 02:23:39;;;;;;;44.23;27.83;;;7.80;99.90;;;;;;4874058;29;20298;-57
2023/04/19 02:26:08;;;;;;;51.23;28.10;;;7.70;99.90;;;;;;4875457;29;20231;-57
2023/04/19 02:28:36;;;;;;;45.37;26.80;;;7.70;99.90;;;;;;4872638;29;20203;-58
2023/04/19 02:31:06;;;;;;;45.03;27.77;;;7.70;99.90;;;;;;4868906;29;20202;-57
2023/04/19 02:33:37;;;;;;;44.77;27.33;;;7.70;99.90;;;;;;4869156;29;20255;-57
2023/04/19 02:36:05;;;;;;;48.97;28.07;;;7.70;99.90;;;;;;4868991;29;20567;-57
2023/04/19 02:38:34;;;;;;;44.90;26.47;;;7.70;99.90;;;;;;4875180;29;20286;-57
2023/04/19 02:41:03;;;;;;;42.67;26.00;;;7.60;99.90;;;;;;4873477;29;20282;-57
2023/04/19 02:43:31;;;;;;;43.57;26.67;;;7.60;99.90;;;;;;4875105;29;20257;-57
2023/04/19 02:45:59;;;;;;;44.30;27.00;;;7.70;99.90;;;;;;4873740;29;20917;-57
2023/04/19 02:48:28;;;;;;;46.73;26.90;;;7.70;99.90;;;;;;4876848;29;20222;-57
2023/04/19 02:50:57;;;;;;;48.90;28.73;;;7.70;99.90;;;;;;4874463;29;20237;-58
2023/04/19 02:53:26;;;;;;;46.43;27.53;;;7.70;99.90;;;;;;4873522;29;20231;-58
2023/04/19 02:55:54;;;;;;;44.77;27.67;;;7.80;99.90;;;;;;4873204;29;20227;-58
2023/04/19 02:58:22;;;;;;;45.33;27.37;;;7.90;99.90;;;;;;4875964;29;20191;-56
2023/04/19 03:00:50;;;;;;;45.40;28.00;;;7.90;99.90;;;;;;4871133;29;20295;-57
2023/04/19 03:03:19;;;;;;;42.43;26.77;;;8.00;99.90;;;;;;4873914;29;20254;-58
2023/04/19 03:05:47;;;;;;;40.13;26.87;;;8.10;99.90;;;;;;4875717;29;20246;-57
2023/04/19 03:08:17;;;;;;;45.70;27.10;;;8.10;99.90;;;;;;4870875;29;20627;-58
2023/04/19 03:10:45;;;;;;;43.30;26.47;;;8.20;99.90;;;;;;4869225;29;20737;-57
2023/04/19 03:13:13;;;;;;;43.23;27.33;;;8.20;99.90;;;;;;4874043;29;20223;-57
2023/04/19 03:15:42;;;;;;;43.87;27.63;;;8.30;99.90;;;;;;4870166;29;20218;-57
2023/04/19 03:18:10;;;;;;;44.10;28.33;;;8.30;99.90;;;;;;4866604;29;20242;-57
2023/04/19 03:20:38;;;;;;;43.67;27.30;;;8.30;99.90;;;;;;4872090;29;20624;-57
2023/04/19 03:23:06;;;;;;;42.93;27.50;;;8.40;99.90;;;;;;4875508;29;20251;-57
2023/04/19 03:25:36;;;;;;;46.70;28.00;;;8.40;99.90;;;;;;4871076;29;20230;-57
2023/04/19 03:28:05;;;;;;;42.83;26.80;;;8.50;99.90;;;;;;4877452;29;20732;-57
2023/04/19 03:30:33;;;;;;;39.63;26.63;;;8.50;99.90;;;;;;4879000;29;20567;-57
2023/04/19 03:33:01;;;;;;;38.83;25.97;;;8.50;99.90;;;;;;4878624;29;20705;-57
2023/04/19 03:35:31;;;;;;;44.10;27.47;;;8.60;99.90;;;;;;4877212;29;20678;-57
2023/04/19 03:37:59;;;;;;;42.00;26.13;;;8.60;99.90;;;;;;4877614;29;20223;-57
2023/04/19 03:40:27;;;;;;;41.80;26.57;;;8.70;99.90;;;;;;4862518;29;20215;-58
2023/04/19 03:42:57;;;;;;;42.47;27.63;;;8.70;99.90;;;;;;4879631;29;20286;-57
2023/04/19 03:45:26;;;;;;;37.97;25.87;;;8.70;99.90;;;;;;4878587;29;20630;-57
2023/04/19 03:47:54;;;;;;;41.53;27.13;;;8.70;99.90;;;;;;4879120;29;20222;-57
2023/04/19 03:50:22;;;;;;;41.20;26.80;;;8.80;99.90;;;;;;4879912;29;20242;-57
2023/04/19 03:52:50;;;;;;;39.83;26.53;;;8.80;99.90;;;;;;4876578;29;20222;-58
2023/04/19 03:55:19;;;;;;;41.90;27.03;;;8.90;99.90;;;;;;4879526;29;20251;-57
2023/04/19 03:57:47;;;;;;;43.67;26.30;;;8.90;99.90;;;;;;4880021;29;20222;-57
2023/04/19 04:00:17;;;;;;;45.13;27.53;;;8.90;99.90;;;;;;4877558;29;20601;-57
2023/04/19 04:02:45;;;;;;;41.43;26.40;;;8.90;99.90;;;;;;4877384;29;20222;-57
2023/04/19 04:05:14;;;;;;;46.27;27.60;;;8.90;99.90;;;;;;4862954;29;20234;-57
2023/04/19 04:07:42;;;;;;;39.37;25.60;;;9.00;99.90;;;;;;4878510;29;20690;-57
2023/04/19 04:10:10;;;;;;;42.50;25.97;;;9.00;99.90;;;;;;4878252;29;20223;-57
2023/04/19 04:12:39;;;;;;;36.80;25.03;;;9.10;99.90;;;;;;4878783;29;20219;-57
2023/04/19 04:15:08;;;;;;;45.73;26.93;;;9.10;99.90;;;;;;4878799;29;20230;-57
2023/04/19 04:17:38;;;;;;;39.10;24.87;;;9.10;99.90;;;;;;4875038;29;20230;-57
2023/04/19 04:20:08;;;;;;;41.00;26.00;;;9.10;99.90;;;;;;4874825;29;20302;-57
2023/04/19 04:22:40;;;;;;;40.43;26.70;;;9.00;99.90;;;;;;4864330;29;20235;-58
2023/04/19 04:25:09;;;;;;;44.10;27.20;;;9.00;99.90;;;;;;4856587;29;20200;-57
2023/04/19 04:27:38;;;;;;;42.97;26.20;;;8.90;99.90;;;;;;4857358;29;20238;-57
2023/04/19 04:30:07;;;;;;;41.47;26.77;;;8.90;99.90;;;;;;4857328;29;20234;-57
2023/04/19 04:32:36;;;;;;;43.07;26.70;;;8.80;99.90;;;;;;4858863;29;20877;-57
2023/04/19 04:35:06;;;;;;;44.63;26.60;;;8.80;99.90;;;;;;4859608;29;20227;-57
2023/04/19 04:37:35;;;;;;;40.70;26.37;;;8.80;99.90;;;;;;4858040;29;20247;-58
2023/04/19 04:40:05;;;;;;;44.20;27.27;;;8.80;99.90;;;;;;4856104;29;20211;-57
2023/04/19 04:42:33;;;;;;;45.13;26.97;;;8.70;99.90;;;;;;4858126;29;20230;-57
2023/04/19 04:45:02;;;;;;;43.60;26.87;;;8.70;99.90;;;;;;4857603;29;20231;-57
2023/04/19 04:47:32;;;;;;;42.03;27.23;;;8.70;99.90;;;;;;4859595;29;20223;-57
2023/04/19 04:50:01;;;;;;;44.40;27.57;;;8.70;99.90;;;;;;4857601;29;20224;-58
2023/04/19 04:52:31;;;;;;;54.63;26.63;;;8.70;99.90;;;;;;4858946;29;20235;-57
2023/04/19 04:54:59;;;;;;;43.97;26.30;;;8.70;99.90;;;;;;4858632;29;20191;-57
2023/04/19 04:57:27;;;;;;;43.73;26.63;;;8.70;99.90;;;;;;4858115;29;20227;-57
2023/04/19 04:59:56;;;;;;;43.37;26.33;;;8.70;99.90;;;;;;4857890;29;20219;-57
2023/04/19 05:02:24;;;;;;;44.53;26.70;;;8.80;99.90;;;;;;4858983;29;20242;-57
2023/04/19 05:04:52;;;;;;;44.70;26.67;;;8.80;99.90;;;;;;4859676;29;20233;-57
2023/04/19 05:07:21;;;;;;;40.93;25.23;;;8.70;99.90;;;;;;4849606;29;20248;-57
2023/04/19 05:09:50;;;;;;;42.20;26.77;;;8.70;99.90;;;;;;4854491;29;20203;-58
2023/04/19 05:12:18;;;;;;;41.33;25.83;;;8.70;99.90;;;;;;4857122;29;20280;-57
2023/04/19 05:14:47;;;;;;;40.73;25.17;;;8.70;99.90;;;;;;4858476;29;20251;-57
2023/04/19 05:17:15;;;;;;;42.77;25.83;;;8.80;99.90;;;;;;4855285;29;20247;-57
2023/04/19 05:19:43;;;;;;;41.50;26.63;;;8.80;99.90;;;;;;4859167;29;20289;-57
2023/04/19 05:22:12;;;;;;;45.47;26.93;;;8.90;99.90;;;;;;4849890;29;20235;-57
2023/04/19 05:24:40;;;;;;;44.33;25.90;;;8.90;99.90;;;;;;4853287;29;20227;-57
2023/04/19 05:27:11;;;;;;;47.50;26.10;;;9.00;99.90;;;;;;4854052;29;20235;-57
2023/04/19 05:29:39;;;;;;;42.67;25.80;;;9.00;99.90;;;;;;4857701;29;20706;-57
2023/04/19 05:32:07;;;;;;;45.47;26.13;;;9.10;99.90;;;;;;4852328;29;20291;-57
2023/04/19 05:34:36;;;;;;;43.40;26.40;;;9.10;99.90;;;;;;4851883;29;20203;-58
2023/04/19 05:37:06;;;;;;;44.47;25.97;;;9.20;99.90;;;;;;4869613;29;20243;-58
2023/04/19 05:39:34;;;;;;;42.70;25.60;;;9.30;99.90;;;;;;4858351;29;20249;-57
2023/04/19 05:42:02;;;;;;;42.00;25.07;;;9.50;99.90;;;;;;4857076;29;20275;-57
2023/04/19 05:44:32;;;;;;;44.40;25.57;;;9.70;99.90;;;;;;4858369;29;20287;-57
2023/04/19 05:47:00;;;;;;;43.50;24.37;;;10.00;99.90;;;;;;4861212;29;20238;-57
2023/04/19 05:49:28;;;;;;;39.10;23.47;;;10.20;99.90;;;;;;4856577;29;20266;-57
2023/04/19 05:51:56;;;;;;;39.63;24.43;;;10.40;99.90;;;;;;4851838;29;20200;-57
2023/04/19 05:54:25;;;;;;;38.33;23.87;;;10.50;99.90;;;;;;4851199;29;20234;-58
2023/04/19 05:56:53;;;;;;;34.40;23.07;;;10.70;99.90;;;;;;4855841;29;20227;-57
2023/04/19 05:59:21;;;;;;;34.47;23.27;;;10.90;99.90;;;;;;4852906;29;20219;-57
2023/04/19 06:01:51;;;;;;;34.13;22.63;;;11.00;99.90;;;;;;4856963;29;20227;-58
2023/04/19 06:04:20;;;;;;;37.17;22.07;;;11.10;99.90;;;;;;4853483;29;20283;-57
2023/04/19 06:06:49;;;;;;;30.87;20.87;;;11.30;99.90;;;;;;4857467;29;20268;-57
2023/04/19 06:09:18;;;;;;;35.87;20.70;;;11.40;99.90;;;;;;4856475;29;20223;-57
2023/04/19 06:11:46;;;;;;;35.23;21.90;;;11.50;99.90;;;;;;4858089;29;20228;-57
2023/04/19 06:14:18;;;;;;;32.20;20.70;;;11.70;99.90;;;;;;4856796;29;20243;-57
2023/04/19 06:16:47;;;;;;;33.27;20.93;;;11.80;99.90;;;;;;4855381;29;20231;-57
2023/04/19 06:19:17;;;;;;;30.53;20.77;;;11.80;99.90;;;;;;4855990;29;20227;-57
2023/04/19 06:21:46;;;;;;;32.17;20.67;;;11.80;99.90;;;;;;4845644;29;20767;-57
2023/04/19 06:24:15;;;;;;;29.77;20.57;;;12.10;99.90;;;;;;4855707;29;20239;-58
2023/04/19 06:26:43;;;;;;;28.27;19.40;;;12.00;99.90;;;;;;4855242;29;20306;-58
2023/04/19 06:29:11;;;;;;;31.73;20.13;;;12.20;99.90;;;;;;4850000;29;20314;-58
2023/04/19 06:31:40;;;;;;;28.80;19.00;;;12.40;99.90;;;;;;4855447;29;20231;-57
2023/04/19 06:34:09;;;;;;;29.97;19.43;;;12.60;99.90;;;;;;4854071;29;21383;-57
2023/04/19 06:36:39;;;;;;;31.83;20.30;;;12.50;99.90;;;;;;4857348;29;20223;-58
2023/04/19 06:39:08;;;;;;;27.27;19.63;;;12.50;99.90;;;;;;4854856;29;20241;-58
2023/04/19 06:41:37;;;;;;;31.93;19.10;;;12.20;99.90;;;;;;4856731;29;20227;-57
2023/04/19 06:44:05;;;;;;;31.83;20.03;;;12.20;99.90;;;;;;4857083;29;20239;-57
2023/04/19 06:46:33;;;;;;;28.07;19.60;;;12.20;99.90;;;;;;4855951;29;20200;-58
2023/04/19 06:49:02;;;;;;;31.87;19.50;;;12.10;99.90;;;;;;4859002;29;20255;-57
2023/04/19 06:51:30;;;;;;;32.27;19.57;;;12.00;99.90;;;;;;4857511;29;20231;-57
2023/04/19 06:53:59;;;;;;;27.90;19.23;;;12.00;99.90;;;;;;4858559;29;20234;-57
2023/04/19 06:56:44;;;;;;;28.10;18.20;;;12.30;99.90;;;;;;4854324;29;20230;-58
2023/04/19 06:59:12;;;;;;;32.53;19.03;;;12.90;99.90;;;;;;4856373;29;20254;-58
2023/04/19 07:01:41;;;;;;;25.83;18.57;;;13.00;99.90;;;;;;4863789;29;20634;-58
2023/04/19 07:04:10;;;;;;;28.83;18.33;;;13.00;99.90;;;;;;4856788;29;20578;-57
2023/04/19 07:06:39;;;;;;;27.70;18.13;;;13.30;99.90;;;;;;4854767;29;20219;-58
2023/04/19 07:09:09;;;;;;;23.77;17.43;;;13.30;99.90;;;;;;4859584;29;20229;-57
2023/04/19 07:11:37;;;;;;;25.33;17.50;;;13.20;99.90;;;;;;4860549;29;20234;-58
2023/04/19 07:14:05;;;;;;;21.70;16.93;;;13.50;99.90;;;;;;4861886;29;20227;-58
2023/04/19 07:16:34;;;;;;;28.17;17.00;;;13.80;99.90;;;;;;4858229;29;20272;-58
2023/04/19 07:19:02;;;;;;;24.63;17.47;;;14.00;99.90;;;;;;4860881;29;20249;-58
2023/04/19 07:21:32;;;;;;;26.87;17.83;;;14.00;99.90;;;;;;4860680;29;20276;-58
2023/04/19 07:24:00;;;;;;;24.60;17.30;;;13.90;99.90;;;;;;4857568;29;20227;-57
2023/04/19 07:26:30;;;;;;;23.50;17.30;;;14.20;99.90;;;;;;4857322;29;20227;-57
2023/04/19 07:28:58;;;;;;;27.23;16.73;;;14.30;99.90;;;;;;4857392;29;20227;-58
2023/04/19 07:31:27;;;;;;;25.33;16.60;;;14.30;99.90;;;;;;4857004;29;20276;-58
2023/04/19 07:33:56;;;;;;;22.83;16.00;;;14.40;99.90;;;;;;4857272;29;20198;-58
2023/04/19 07:36:24;;;;;;;22.30;17.10;;;14.30;99.90;;;;;;4856781;29;20230;-57
2023/04/19 07:38:52;;;;;;;22.50;16.50;;;14.10;99.90;;;;;;4859631;29;20658;-57
2023/04/19 07:41:21;;;;;;;24.70;16.97;;;13.90;99.90;;;;;;4860145;29;20223;-57
2023/04/19 07:43:50;;;;;;;21.77;16.43;;;14.00;99.90;;;;;;4859041;29;20231;-58
2023/04/19 07:46:19;;;;;;;20.87;15.10;;;14.10;99.90;;;;;;4859369;29;20222;-58
2023/04/19 07:48:47;;;;;;;20.00;14.93;;;14.80;99.90;;;;;;4860019;29;20324;-58
2023/04/19 07:51:16;;;;;;;22.43;14.77;;;15.50;99.90;;;;;;4859819;29;20234;-57
2023/04/19 07:53:46;;;;;;;20.50;14.13;;;15.90;99.90;;;;;;4859539;29;20979;-57
2023/04/19 07:56:15;;;;;;;23.47;14.57;;;15.90;99.90;;;;;;4859074;29;20790;-57
2023/04/19 07:58:43;;;;;;;18.70;14.40;;;16.10;99.90;;;;;;4857958;29;20250;-57
2023/04/19 08:01:17;;;;;;;15.67;13.30;;;15.80;99.90;;;;;;4860306;29;20189;-57
2023/04/19 08:03:45;;;;;;;16.63;12.80;;;16.00;99.90;;;;;;4854946;29;20217;-57
2023/04/19 08:06:14;;;;;;;20.57;13.90;;;16.10;99.90;;;;;;4858314;29;20578;-57
2023/04/19 08:08:42;;;;;;;16.43;13.67;;;16.40;99.90;;;;;;4848974;29;20226;-57
2023/04/19 08:11:11;;;;;;;19.93;13.67;;;16.50;99.90;;;;;;4856619;29;20330;-57
2023/04/19 08:13:39;;;;;;;17.83;13.43;;;16.70;99.90;;;;;;4855766;29;20247;-58
2023/04/19 08:16:07;;;;;;;15.73;12.57;;;17.00;99.90;;;;;;4857058;29;20203;-58
2023/04/19 08:18:41;;;;;;;16.17;11.97;;;17.40;99.90;;;;;;4856812;29;20250;-57
2023/04/19 08:21:09;;;;;;;13.33;11.67;;;17.00;99.90;;;;;;4859806;29;20231;-58
2023/04/19 08:23:38;;;;;;;15.67;12.47;;;17.20;99.90;;;;;;4858694;29;20296;-57
2023/04/19 08:26:15;;;;;;;14.83;11.87;;;17.30;99.90;;;;;;4857349;29;20223;-58
2023/04/19 08:28:43;;;;;;;15.43;11.60;;;17.80;99.90;;;;;;4854433;29;20241;-57
2023/04/19 08:31:11;;;;;;;15.07;11.27;;;17.90;99.90;;;;;;4855866;29;20188;-57
2023/04/19 08:33:41;;;;;;;12.80;11.20;;;18.10;99.90;;;;;;4858073;29;20219;-57
2023/04/19 08:36:10;;;;;;;14.00;11.30;;;18.30;99.90;;;;;;4847262;29;20226;-58
2023/04/19 08:38:40;;;;;;;15.60;10.67;;;18.30;99.90;;;;;;4858147;29;20227;-58
2023/04/19 08:41:14;;;;;;;14.37;11.23;;;18.30;99.90;;;;;;4858151;29;20250;-58
2023/04/19 08:43:44;;;;;;;13.70;11.07;;;18.30;99.90;;;;;;4865663;29;20314;-58
2023/04/19 08:46:12;;;;;;;13.30;10.80;;;18.90;99.90;;;;;;4859113;29;20271;-58
2023/04/19 08:48:43;;;;;;;15.27;11.00;;;19.40;99.90;;;;;;4857694;29;20234;-58
2023/04/19 08:51:14;;;;;;;17.50;11.17;;;19.40;99.90;;;;;;4857500;29;20774;-58
2023/04/19 08:53:43;;;;;;;13.90;10.73;;;19.30;99.90;;;;;;4856764;29;20216;-58
2023/04/19 08:56:12;;;;;;;13.23;11.00;;;19.40;99.90;;;;;;4855788;29;20612;-58
2023/04/19 08:58:59;;;;;;;11.70;10.50;;;19.50;99.90;;;;;;4855763;29;20353;-58
2023/04/19 09:01:45;;;;;;;13.07;10.83;;;19.80;99.90;;;;;;4853831;29;20227;-58
2023/04/19 09:04:15;;;;;;;13.00;11.30;;;20.00;99.90;;;;;;4857178;29;20285;-58
2023/04/19 09:07:03;;;;;;;14.07;11.30;;;20.00;99.90;;;;;;4857695;29;20235;-58
2023/04/19 09:09:32;;;;;;;13.73;11.13;;;20.20;99.90;;;;;;4856354;29;20289;-58
2023/04/19 09:12:17;;;;;;;13.33;10.47;;;19.90;99.90;;;;;;4858844;29;20701;-58
2023/04/19 09:14:47;;;;;;;12.70;10.70;;;20.30;99.90;;;;;;4858105;29;20324;-58
2023/04/19 09:17:18;;;;;;;13.80;10.23;;;20.70;99.90;;;;;;4860371;29;20249;-59
2023/04/19 09:19:48;;;;;;;12.57;10.67;;;20.50;99.90;;;;;;4854387;29;20298;-58
2023/04/19 09:22:17;;;;;;;14.53;10.40;;;20.80;99.90;;;;;;4860078;29;20267;-58
2023/04/19 09:24:46;;;;;;;11.57;10.47;;;21.60;99.90;;;;;;4855678;29;20878;-58
2023/04/19 09:27:26;;;;;;;11.20;10.17;;;21.50;99.90;;;;;;4857435;29;20226;-59
2023/04/19 09:29:55;;;;;;;13.43;10.10;;;20.80;99.90;;;;;;4854673;29;20314;-58
2023/04/19 09:32:24;;;;;;;11.03;9.87;;;21.20;99.90;;;;;;4854233;29;20236;-58
2023/04/19 09:34:56;;;;;;;10.53;9.53;;;21.00;99.90;;;;;;4848306;29;20328;-58
2023/04/19 09:37:25;;;;;;;13.50;9.30;;;21.30;99.90;;;;;;4853292;29;20247;-58
2023/04/19 09:39:56;;;;;;;11.17;9.77;;;21.70;99.90;;;;;;4854298;29;20207;-58
2023/04/19 09:42:45;;;;;;;13.00;9.97;;;21.60;99.90;;;;;;4855755;29;20238;-58
2023/04/19 09:45:17;;;;;;;16.23;9.73;;;21.50;99.90;;;;;;4855494;29;20719;-58
2023/04/19 09:48:01;;;;;;;10.60;9.50;;;21.40;99.90;;;;;;4854091;29;20247;-58
2023/04/19 09:50:31;;;;;;;9.90;8.90;;;21.00;99.90;;;;;;4854412;29;20230;-58
2023/04/19 09:53:06;;;;;;;10.20;9.10;;;21.00;99.90;;;;;;4853107;29;20685;-59
2023/04/19 09:55:37;;;;;;;9.87;8.57;;;20.20;99.90;;;;;;4837258;29;20197;-58
2023/04/19 09:58:24;;;;;;;9.30;7.63;;;19.90;99.90;;;;;;4852430;29;20687;-58
2023/04/19 10:01:02;;;;;;;8.57;7.77;;;20.40;99.90;;;;;;4851638;29;20200;-58
2023/04/19 10:03:43;;;;;;;8.23;7.20;;;20.50;99.90;;;;;;4850410;29;20249;-58
2023/04/19 10:06:15;;;;;;;7.73;7.03;;;20.90;99.90;;;;;;4853183;29;20371;-58
2023/04/19 10:09:05;;;;;;;8.63;6.63;;;21.60;99.90;;;;;;4853158;29;20256;-58
2023/04/19 10:11:37;;;;;;;8.17;6.40;;;22.30;99.90;;;;;;4858861;29;20240;-59
2023/04/19 10:14:07;;;;;;;7.07;6.40;;;22.40;99.90;;;;;;4855728;29;20226;-59
2023/04/19 10:16:38;;;;;;;8.97;6.50;;;22.30;99.90;;;;;;4856008;29;20535;-58
2023/04/19 10:19:11;;;;;;;8.57;6.73;;;22.60;99.90;;;;;;4853897;29;20207;-59
2023/04/19 10:21:42;;;;;;;6.87;6.17;;;22.60;99.90;;;;;;4854686;29;20289;-59
2023/04/19 10:24:13;;;;;;;10.43;6.60;;;21.50;99.90;;;;;;4856430;29;20649;-58
2023/04/19 10:27:11;;;;;;;7.23;6.47;;;21.40;99.90;;;;;;4856997;29;20782;-58
2023/04/19 10:29:55;;;;;;;7.50;6.70;;;21.30;99.90;;;;;;4847384;29;20222;-59
2023/04/19 10:32:26;;;;;;;9.60;6.53;;;20.30;99.90;;;;;;4855937;29;20220;-58
2023/04/19 10:34:54;;;;;;;6.97;6.37;;;20.50;99.90;;;;;;4855726;29;20244;-58
2023/04/19 10:37:26;;;;;;;7.00;6.13;;;20.80;99.90;;;;;;4859867;29;20612;-58
2023/04/19 10:39:55;;;;;;;6.10;5.70;;;21.90;99.90;;;;;;4855380;29;20201;-58
2023/04/19 10:42:23;;;;;;;6.60;6.00;;;22.20;99.90;;;;;;4860375;29;20233;-58
2023/04/19 10:45:28;;;;;;;7.03;6.40;;;21.60;99.90;;;;;;4853586;29;20232;-58
2023/04/19 10:47:56;;;;;;;7.83;6.10;;;21.90;99.90;;;;;;4856440;29;20338;-58
2023/04/19 10:50:25;;;;;;;7.33;6.10;;;21.80;99.90;;;;;;4856496;29;20297;-58
2023/04/19 10:52:55;;;;;;;6.20;5.60;;;21.70;99.90;;;;;;4854074;29;20220;-58
2023/04/19 10:55:23;;;;;;;5.43;5.03;;;22.10;99.90;;;;;;4857685;29;20208;-58
2023/04/19 10:58:07;;;;;;;5.70;5.30;;;21.80;99.90;;;;;;4859885;29;20201;-59
2023/04/19 11:00:37;;;;;;;5.77;5.37;;;22.10;99.90;;;;;;4859793;29;20220;-58
2023/04/19 11:03:41;;;;;;;5.83;5.43;;;22.30;99.90;;;;;;4853712;29;20243;-58
2023/04/19 11:06:18;;;;;;;6.30;5.60;;;22.10;99.90;;;;;;4856043;29;20223;-58
2023/04/19 11:08:47;;;;;;;6.63;5.87;;;22.70;99.90;;;;;;4856719;29;20249;-58
2023/04/19 11:11:16;;;;;;;6.87;6.27;;;22.90;99.90;;;;;;4853299;29;20286;-58
2023/04/19 11:13:44;;;;;;;8.27;6.67;;;22.10;99.90;;;;;;4858238;29;20410;-58
2023/04/19 11:16:13;;;;;;;6.73;6.17;;;21.10;99.90;;;;;;4837802;29;20291;-58
2023/04/19 11:18:41;;;;;;;7.83;7.13;;;20.00;99.90;;;;;;4857011;29;20231;-58
2023/04/19 11:21:13;;;;;;;8.03;7.23;;;19.20;99.90;;;;;;4855444;29;20271;-57
2023/04/19 11:23:41;;;;;;;15.93;9.30;;;18.80;99.90;;;;;;4855921;29;20235;-58
2023/04/19 11:26:12;;;;;;;7.67;6.87;;;19.50;99.90;;;;;;4859496;29;20223;-58
2023/04/19 11:28:40;;;;;;;11.63;7.90;;;19.80;99.90;;;;;;4856227;29;20214;-58
2023/04/19 11:31:08;;;;;;;8.77;7.90;;;19.10;99.90;;;;;;4854565;29;20570;-59
2023/04/19 11:33:37;;;;;;;8.37;7.43;;;19.00;99.90;;;;;;4851917;29;20231;-58
2023/04/19 11:36:11;;;;;;;10.80;7.77;;;19.50;99.90;;;;;;4856026;29;20227;-58
2023/04/19 11:38:40;;;;;;;8.10;7.40;;;19.60;99.90;;;;;;4856694;29;20583;-58
2023/04/19 11:41:08;;;;;;;8.07;7.07;;;20.00;99.90;;;;;;4858815;29;20694;-58
2023/04/19 11:43:39;;;;;;;8.13;6.83;;;20.30;99.90;;;;;;4856015;29;20332;-58
2023/04/19 11:46:08;;;;;;;12.73;7.77;;;21.00;99.90;;;;;;4856050;29;20215;-58
2023/04/19 11:48:36;;;;;;;7.80;7.10;;;21.40;99.90;;;;;;4853714;29;20239;-58
2023/04/19 11:51:05;;;;;;;9.00;8.10;;;21.20;99.90;;;;;;4854563;29;20560;-58
2023/04/19 11:53:33;;;;;;;10.90;7.50;;;21.10;99.90;;;;;;4854203;29;20219;-58
2023/04/19 11:56:05;;;;;;;8.17;7.37;;;20.00;99.90;;;;;;4853923;29;20531;-58
2023/04/19 11:58:39;;;;;;;9.60;8.20;;;20.40;99.90;;;;;;4856704;29;20206;-58
2023/04/19 12:01:09;;;;;;;10.67;7.40;;;19.80;99.90;;;;;;4851780;29;20243;-58
2023/04/19 12:03:42;;;;;;;12.17;7.47;;;19.70;99.90;;;;;;4852853;29;20283;-58
2023/04/19 12:06:12;;;;;;;10.63;7.67;;;19.80;99.90;;;;;;4855793;29;20271;-58
2023/04/19 12:08:44;;;;;;;8.50;7.60;;;19.80;99.90;;;;;;4852908;29;20277;-58
2023/04/19 12:11:12;;;;;;;8.67;7.50;;;19.80;99.90;;;;;;4850139;29;20331;-58
2023/04/19 12:13:43;;;;;;;8.60;7.40;;;20.00;99.90;;;;;;4854451;29;20200;-58
2023/04/19 12:16:12;;;;;;;9.07;8.17;;;19.80;99.90;;;;;;4857427;29;20200;-58
2023/04/19 12:18:45;;;;;;;9.43;8.03;;;19.60;99.90;;;;;;4854218;29;20229;-57
2023/04/19 12:21:27;;;;;;;10.90;8.20;;;19.50;99.90;;;;;;4856793;29;20236;-57
2023/04/19 12:24:00;;;;;;;8.10;7.30;;;19.40;99.90;;;;;;4857061;29;20579;-57
2023/04/19 12:26:29;;;;;;;8.93;8.03;;;19.60;99.90;;;;;;4855560;29;20243;-58
2023/04/19 12:29:01;;;;;;;9.23;7.57;;;19.70;99.90;;;;;;4851111;29;20899;-57
2023/04/19 12:31:32;;;;;;;8.17;7.37;;;19.60;99.90;;;;;;4854928;29;20200;-58
2023/04/19 12:34:01;;;;;;;7.67;6.83;;;19.40;99.90;;;;;;4851826;29;20192;-57
2023/04/19 12:36:29;;;;;;;10.30;8.30;;;19.60;99.90;;;;;;4855839;29;20586;-57
2023/04/19 12:38:57;;;;;;;9.13;7.90;;;19.70;99.90;;;;;;4853664;29;20236;-57
2023/04/19 12:41:28;;;;;;;8.07;7.27;;;19.80;99.90;;;;;;4853257;29;20268;-58
2023/04/19 12:43:56;;;;;;;9.10;7.40;;;19.80;99.90;;;;;;4854945;29;20311;-58
2023/04/19 12:46:26;;;;;;;9.47;7.37;;;20.00;99.90;;;;;;4856399;29;20566;-58
2023/04/19 12:48:55;;;;;;;11.40;7.10;;;19.70;99.90;;;;;;4850994;29;20200;-58
2023/04/19 12:51:23;;;;;;;9.40;7.90;;;19.50;99.90;;;;;;4851632;29;20692;-58